Time;durP1;ratioP1;P1;durP2;ratioP2;P2;SDS_P1;SDS_P2;PMS_P1;PMS_P2;Temp;Humidity;BMP_temperature;BMP_pressure;BME280_temperature;BME280_humidity;BME280_pressure;Samples;Min_cycle;Max_cycle;Signal;HPM_P1;HPM_P2
2022/06/07 00:00:09;;;;;;;10.52;4.30;;;12.00;99.90;;;;;;5050607;28;20051;-59
2022/06/07 00:02:35;;;;;;;19.67;4.63;;;12.00;99.90;;;;;;5046250;28;20517;-64
2022/06/07 00:05:03;;;;;;;11.52;4.75;;;12.00;99.90;;;;;;5059785;28;20059;-63
2022/06/07 00:07:29;;;;;;;10.77;4.15;;;12.00;99.90;;;;;;5067936;28;20131;-59
2022/06/07 00:09:55;;;;;;;14.70;4.90;;;12.00;99.90;;;;;;5066904;28;20051;-65
2022/06/07 00:12:22;;;;;;;10.18;4.78;;;12.00;99.90;;;;;;5068094;28;20056;-63
2022/06/07 00:14:49;;;;;;;7.72;4.25;;;12.00;99.90;;;;;;5083894;28;20033;-65
2022/06/07 00:17:15;;;;;;;7.32;4.30;;;12.00;99.90;;;;;;5033800;28;20177;-67
2022/06/07 00:19:41;;;;;;;6.35;4.20;;;12.00;99.90;;;;;;5067223;28;20521;-63
2022/06/07 00:22:07;;;;;;;9.05;3.60;;;12.00;99.90;;;;;;5051074;28;20064;-67
2022/06/07 00:24:35;;;;;;;10.02;4.07;;;12.00;99.90;;;;;;5067713;28;20044;-62
2022/06/07 00:27:01;;;;;;;6.10;3.55;;;12.00;99.90;;;;;;5056800;28;20036;-61
2022/06/07 00:29:28;;;;;;;11.60;4.70;;;12.00;99.90;;;;;;5067710;28;20181;-63
2022/06/07 00:31:54;;;;;;;8.02;3.75;;;12.00;99.90;;;;;;5066117;28;20513;-65
2022/06/07 00:34:21;;;;;;;12.10;3.80;;;12.00;99.90;;;;;;5068429;28;20503;-60
2022/06/07 00:36:46;;;;;;;8.60;4.40;;;12.00;99.90;;;;;;5070146;28;20044;-61
2022/06/07 00:39:12;;;;;;;8.77;3.58;;;12.00;99.90;;;;;;5054429;28;20047;-63
2022/06/07 00:41:38;;;;;;;6.50;3.63;;;12.00;99.90;;;;;;5070971;28;20058;-69
2022/06/07 00:44:25;;;;;;;13.57;4.13;;;12.00;99.90;;;;;;5070699;28;20051;-62
2022/06/07 00:47:02;;;;;;;10.88;4.00;;;12.00;99.90;;;;;;5069189;28;20462;-65
2022/06/07 00:49:34;;;;;;;7.63;3.70;;;12.00;99.90;;;;;;5071140;28;20127;-65
2022/06/07 00:52:00;;;;;;;10.52;4.05;;;12.00;99.90;;;;;;5070613;28;20044;-59
2022/06/07 00:54:29;;;;;;;7.20;3.80;;;12.00;99.90;;;;;;5071174;28;20489;-63
2022/06/07 00:56:56;;;;;;;9.45;4.13;;;12.00;99.90;;;;;;5051928;28;20331;-70
2022/06/07 00:59:23;;;;;;;10.07;3.95;;;12.00;99.90;;;;;;5074955;28;20097;-60
2022/06/07 01:01:50;;;;;;;7.72;4.03;;;12.00;99.90;;;;;;5088378;28;20043;-58
2022/06/07 01:04:16;;;;;;;13.95;4.55;;;12.00;99.90;;;;;;5070303;28;20052;-58
2022/06/07 01:12:28;;;;;;;15.25;4.30;;;12.00;99.90;;;;;;5009885;28;20534;-67
2022/06/07 01:14:54;;;;;;;7.88;3.63;;;12.10;99.90;;;;;;5066400;28;20083;-62
2022/06/07 01:17:20;;;;;;;8.10;4.18;;;12.00;99.90;;;;;;5053658;28;20131;-65
2022/06/07 01:19:46;;;;;;;4.13;3.65;;;12.10;99.90;;;;;;5088227;28;20051;-62
2022/06/07 01:22:12;;;;;;;8.57;4.10;;;12.10;99.90;;;;;;5051713;28;20070;-60
2022/06/07 01:24:39;;;;;;;14.65;3.80;;;12.10;99.90;;;;;;5053507;28;20467;-60
2022/06/07 01:27:06;;;;;;;7.78;4.30;;;12.10;99.90;;;;;;5069804;28;20048;-58
2022/06/07 01:29:32;;;;;;;5.88;3.95;;;12.10;99.90;;;;;;5074449;28;20092;-62
2022/06/07 01:31:58;;;;;;;7.60;4.22;;;12.10;99.90;;;;;;5069476;28;20086;-69
2022/06/07 01:34:25;;;;;;;14.27;4.45;;;12.10;99.90;;;;;;5070265;28;20094;-63
2022/06/07 01:36:50;;;;;;;7.10;4.30;;;12.10;99.90;;;;;;5087941;28;20052;-68
2022/06/07 01:42:00;;;;;;;11.93;4.43;;;12.10;99.90;;;;;;5074120;28;20040;-62
2022/06/07 01:44:27;;;;;;;8.73;4.47;;;12.10;99.90;;;;;;5069739;28;20394;-61
2022/06/07 01:46:55;;;;;;;9.70;4.85;;;12.10;99.90;;;;;;5070297;28;20055;-59
2022/06/07 01:49:21;;;;;;;9.93;4.80;;;12.10;99.90;;;;;;5062414;28;20051;-58
2022/06/07 01:51:47;;;;;;;9.48;4.90;;;12.10;99.90;;;;;;5084325;28;20131;-58
2022/06/07 01:54:13;;;;;;;11.48;5.65;;;12.20;99.90;;;;;;5087771;28;20127;-58
2022/06/07 01:56:40;;;;;;;8.50;5.40;;;12.20;99.90;;;;;;5069039;28;20056;-68
2022/06/07 01:59:07;;;;;;;8.45;5.05;;;12.20;99.90;;;;;;5067674;28;20490;-62
2022/06/07 02:01:33;;;;;;;14.65;6.50;;;12.20;99.90;;;;;;5069249;28;20043;-58
2022/06/07 02:03:59;;;;;;;9.18;5.40;;;12.20;99.90;;;;;;5053209;28;20076;-61
2022/06/07 02:06:25;;;;;;;15.02;5.95;;;12.20;99.90;;;;;;5069240;28;20083;-62
2022/06/07 02:08:51;;;;;;;9.40;5.85;;;12.20;99.90;;;;;;5069575;28;20052;-64
2022/06/07 02:11:20;;;;;;;8.15;5.03;;;12.20;99.90;;;;;;5068421;28;20356;-64
2022/06/07 02:13:46;;;;;;;11.50;5.03;;;12.20;99.90;;;;;;5069336;28;20044;-61
2022/06/07 02:16:13;;;;;;;7.07;4.30;;;12.20;99.90;;;;;;5051994;28;20513;-60
2022/06/07 02:18:40;;;;;;;9.13;5.80;;;12.20;99.90;;;;;;5087341;28;20097;-63
2022/06/07 02:21:07;;;;;;;11.95;5.20;;;12.20;99.90;;;;;;5043613;28;20048;-59
2022/06/07 02:23:35;;;;;;;11.18;5.60;;;12.20;99.90;;;;;;5087183;28;20047;-60
2022/06/07 02:26:06;;;;;;;12.82;6.40;;;12.20;99.90;;;;;;5087269;28;20087;-59
2022/06/07 02:28:38;;;;;;;7.55;5.65;;;12.20;99.90;;;;;;5087389;28;20486;-67
2022/06/07 02:31:05;;;;;;;10.70;5.55;;;12.20;99.90;;;;;;5085415;28;20048;-69
2022/06/07 02:33:33;;;;;;;9.68;6.10;;;12.30;99.90;;;;;;5068976;28;20455;-69
2022/06/07 02:36:00;;;;;;;10.02;5.63;;;12.30;99.90;;;;;;5087348;28;20353;-56
2022/06/07 02:38:26;;;;;;;13.60;5.47;;;12.30;99.90;;;;;;5087115;28;20046;-62
2022/06/07 02:40:55;;;;;;;10.98;5.72;;;12.30;99.90;;;;;;5067411;28;20051;-65
2022/06/07 02:43:20;;;;;;;12.50;5.22;;;12.30;99.90;;;;;;5086552;28;20044;-60
2022/06/07 02:45:47;;;;;;;10.48;5.50;;;12.30;99.90;;;;;;5068553;28;20087;-65
2022/06/07 02:48:13;;;;;;;11.45;5.60;;;12.30;99.90;;;;;;5068648;28;20044;-62
2022/06/07 02:50:39;;;;;;;10.85;5.88;;;12.30;99.90;;;;;;5068528;28;20188;-58
2022/06/07 02:53:05;;;;;;;10.65;5.43;;;12.30;99.90;;;;;;5085163;28;20047;-64
2022/06/07 02:55:31;;;;;;;6.43;4.72;;;12.40;99.90;;;;;;5067577;28;20421;-65
2022/06/07 02:57:59;;;;;;;9.02;6.00;;;12.40;99.90;;;;;;5068383;28;20063;-62
2022/06/07 03:00:25;;;;;;;13.00;5.70;;;12.40;99.90;;;;;;5051651;28;20551;-60
2022/06/07 03:02:51;;;;;;;10.55;5.60;;;12.40;99.90;;;;;;5050506;28;20115;-58
2022/06/07 03:05:17;;;;;;;14.48;5.18;;;12.40;99.90;;;;;;5051187;28;20680;-60
2022/06/07 03:07:42;;;;;;;6.57;5.28;;;12.40;99.90;;;;;;5051748;28;20398;-60
2022/06/07 03:10:10;;;;;;;7.55;5.55;;;12.40;99.90;;;;;;5086117;28;20036;-65
2022/06/07 03:12:36;;;;;;;8.52;5.60;;;12.40;99.90;;;;;;5084780;28;20044;-68
2022/06/07 03:15:03;;;;;;;11.75;5.68;;;12.40;99.90;;;;;;5068333;28;20129;-64
2022/06/07 03:17:28;;;;;;;5.88;4.90;;;12.40;99.90;;;;;;5068033;28;20936;-66
2022/06/07 03:19:54;;;;;;;15.80;6.13;;;12.40;99.90;;;;;;5048139;28;20146;-62
2022/06/07 03:22:20;;;;;;;12.10;6.20;;;12.40;99.90;;;;;;5060036;28;20052;-66
2022/06/07 03:24:46;;;;;;;11.35;5.85;;;12.40;99.90;;;;;;5050610;28;20044;-62
2022/06/07 03:27:12;;;;;;;13.73;6.00;;;12.40;99.90;;;;;;5067524;28;20460;-66
2022/06/07 03:29:39;;;;;;;8.25;5.13;;;12.40;99.90;;;;;;5086080;28;20098;-59
2022/06/07 03:32:10;;;;;;;9.25;5.82;;;12.40;99.90;;;;;;5051897;28;20058;-64
2022/06/07 03:34:38;;;;;;;13.10;5.70;;;12.50;99.90;;;;;;5056576;28;20052;-57
2022/06/07 03:37:05;;;;;;;10.63;5.50;;;12.50;99.90;;;;;;5086018;28;20542;-59
2022/06/07 03:39:31;;;;;;;11.27;5.70;;;12.40;99.90;;;;;;5086184;28;20047;-64
2022/06/07 03:41:57;;;;;;;11.75;6.00;;;12.50;99.90;;;;;;5067585;28;20048;-62
2022/06/07 03:44:23;;;;;;;9.00;5.78;;;12.40;99.90;;;;;;5083971;28;20097;-63
2022/06/07 03:46:49;;;;;;;7.60;5.75;;;12.40;99.90;;;;;;5085917;28;20072;-65
2022/06/07 03:49:15;;;;;;;6.95;5.43;;;12.40;99.90;;;;;;5051218;28;20050;-60
2022/06/07 03:51:41;;;;;;;12.88;6.72;;;12.40;99.90;;;;;;5067722;28;20506;-62
2022/06/07 03:54:09;;;;;;;12.00;6.90;;;12.40;99.90;;;;;;5067568;28;20053;-60
2022/06/07 03:56:35;;;;;;;11.48;6.20;;;12.40;99.90;;;;;;5084310;28;20063;-69
2022/06/07 03:59:01;;;;;;;9.85;6.18;;;12.40;99.90;;;;;;5051093;28;20097;-64
2022/06/07 04:01:28;;;;;;;15.18;8.00;;;12.40;99.90;;;;;;5050769;28;20083;-63
2022/06/07 04:03:59;;;;;;;13.15;7.88;;;12.30;99.90;;;;;;5051314;28;20086;-66
2022/06/07 04:06:28;;;;;;;12.30;8.50;;;12.30;99.90;;;;;;5065648;28;20048;-66
2022/06/07 04:08:55;;;;;;;13.88;7.80;;;12.30;99.90;;;;;;5068598;28;20048;-60
2022/06/07 04:11:23;;;;;;;13.55;7.43;;;12.30;99.90;;;;;;5071067;28;20048;-63
2022/06/07 04:13:50;;;;;;;10.93;6.93;;;12.30;99.90;;;;;;5072251;28;20062;-62
2022/06/07 04:16:19;;;;;;;14.77;7.75;;;12.30;99.90;;;;;;5052619;28;20052;-64
2022/06/07 04:18:50;;;;;;;11.38;7.35;;;12.30;99.90;;;;;;5071966;28;20091;-62
2022/06/07 04:21:17;;;;;;;12.60;7.60;;;12.30;99.90;;;;;;5054612;28;20498;-62
2022/06/07 04:23:43;;;;;;;13.15;8.75;;;12.30;99.90;;;;;;5089678;28;20039;-60
2022/06/07 04:26:14;;;;;;;7.80;7.00;;;12.30;99.90;;;;;;5069930;28;20044;-60
2022/06/07 04:28:46;;;;;;;12.27;7.45;;;12.30;99.90;;;;;;5071535;28;20109;-63
2022/06/07 04:31:19;;;;;;;17.95;8.05;;;12.30;99.90;;;;;;5069774;28;20424;-62
2022/06/07 04:33:45;;;;;;;12.40;7.43;;;12.30;99.90;;;;;;5070110;28;20051;-59
2022/06/07 04:36:13;;;;;;;13.18;8.70;;;12.30;99.90;;;;;;5084434;28;20055;-69
2022/06/07 04:38:40;;;;;;;11.18;8.10;;;12.30;99.90;;;;;;5063552;28;20071;-59
2022/06/07 04:41:11;;;;;;;11.02;8.02;;;12.30;99.90;;;;;;5046650;28;20470;-64
2022/06/07 04:43:37;;;;;;;16.10;6.75;;;12.30;99.90;;;;;;5064898;28;20482;-63
2022/06/07 04:46:07;;;;;;;11.18;5.22;;;12.30;99.90;;;;;;5070685;28;20098;-64
2022/06/07 04:48:33;;;;;;;11.68;5.78;;;12.20;99.90;;;;;;5071117;28;20044;-61
2022/06/07 04:51:04;;;;;;;10.02;5.05;;;12.20;99.90;;;;;;5054143;28;20044;-62
2022/06/07 04:53:31;;;;;;;10.93;5.40;;;12.10;99.90;;;;;;5070320;28;20561;-62
2022/06/07 04:56:06;;;;;;;8.45;4.90;;;12.10;99.90;;;;;;5069128;28;20087;-59
2022/06/07 04:58:31;;;;;;;12.88;6.00;;;12.00;99.90;;;;;;5070095;28;20048;-70
2022/06/07 05:00:57;;;;;;;13.20;5.07;;;12.00;99.90;;;;;;5037611;28;20127;-62
2022/06/07 05:03:23;;;;;;;7.82;4.78;;;12.10;99.90;;;;;;5069719;28;20048;-69
2022/06/07 05:05:49;;;;;;;8.68;4.55;;;12.10;99.90;;;;;;5089408;28;20039;-58
2022/06/07 05:08:14;;;;;;;10.73;5.35;;;12.10;99.90;;;;;;5068703;28;20055;-59
2022/06/07 05:10:40;;;;;;;11.13;5.32;;;12.10;99.90;;;;;;5069908;28;20044;-71
2022/06/07 05:13:06;;;;;;;18.13;4.68;;;12.10;99.90;;;;;;5088710;28;20093;-63
2022/06/07 05:15:32;;;;;;;6.78;4.50;;;12.10;99.90;;;;;;5069924;28;20047;-69
2022/06/07 05:17:58;;;;;;;5.50;2.97;;;12.10;99.90;;;;;;5068883;28;20040;-60
2022/06/07 05:20:23;;;;;;;4.57;3.50;;;12.00;99.90;;;;;;5069389;28;20376;-59
2022/06/07 05:22:49;;;;;;;9.98;3.65;;;12.00;99.90;;;;;;5070611;28;20091;-60
2022/06/07 05:25:15;;;;;;;4.82;3.28;;;12.00;99.90;;;;;;5070246;28;20416;-63
2022/06/07 05:27:46;;;;;;;3.67;2.83;;;12.00;99.90;;;;;;5080308;28;20043;-69
2022/06/07 05:30:13;;;;;;;6.13;3.08;;;12.00;99.90;;;;;;5053428;28;20051;-68
2022/06/07 05:32:39;;;;;;;5.25;3.20;;;12.00;99.90;;;;;;5069290;28;20048;-62
2022/06/07 05:35:05;;;;;;;8.07;3.65;;;12.10;99.90;;;;;;5070008;28;20058;-66
2022/06/07 05:37:32;;;;;;;6.85;3.22;;;12.10;99.90;;;;;;5069622;28;20506;-65
2022/06/07 05:39:58;;;;;;;7.10;3.15;;;12.10;99.90;;;;;;5068624;28;20033;-59
2022/06/07 05:42:24;;;;;;;6.30;3.95;;;12.10;99.90;;;;;;5052798;28;20073;-69
2022/06/07 05:44:50;;;;;;;9.85;3.38;;;12.10;99.90;;;;;;5070046;28;20131;-62
2022/06/07 05:47:15;;;;;;;7.03;3.60;;;12.20;99.90;;;;;;5069554;28;20058;-59
2022/06/07 05:49:41;;;;;;;7.95;3.45;;;12.20;99.90;;;;;;5052768;28;20050;-63
2022/06/07 05:52:07;;;;;;;9.27;3.83;;;12.20;99.90;;;;;;5069632;28;20975;-59
2022/06/07 05:54:38;;;;;;;4.72;3.45;;;12.20;99.90;;;;;;5069133;28;20036;-62
2022/06/07 05:57:06;;;;;;;10.35;4.07;;;12.20;99.90;;;;;;5069448;28;20048;-62
2022/06/07 05:59:32;;;;;;;8.52;4.22;;;12.20;99.90;;;;;;5050468;28;20052;-68
2022/06/07 06:01:58;;;;;;;5.25;4.00;;;12.20;99.90;;;;;;5068950;28;20048;-59
2022/06/07 06:04:25;;;;;;;4.47;3.67;;;12.30;99.90;;;;;;5068902;28;20066;-59
2022/06/07 06:06:54;;;;;;;12.65;4.78;;;12.40;99.90;;;;;;5053206;28;20410;-58
2022/06/07 06:12:04;;;;;;;11.57;4.43;;;12.50;99.90;;;;;;5060836;28;20051;-68
2022/06/07 06:14:30;;;;;;;7.93;4.03;;;12.50;99.90;;;;;;5069418;28;20047;-60
2022/06/07 06:16:56;;;;;;;6.97;4.88;;;12.50;99.90;;;;;;5069083;28;20048;-69
2022/06/07 06:19:22;;;;;;;8.02;3.95;;;12.60;99.90;;;;;;5063244;28;20053;-60
2022/06/07 06:21:48;;;;;;;9.43;4.03;;;12.60;99.90;;;;;;5067342;28;20441;-66
2022/06/07 06:24:15;;;;;;;6.05;4.38;;;12.60;99.90;;;;;;5052593;28;20044;-66
2022/06/07 06:26:42;;;;;;;8.05;3.33;;;12.60;99.90;;;;;;5068569;28;20044;-62
2022/06/07 06:29:08;;;;;;;7.38;4.07;;;12.50;99.90;;;;;;5068897;28;20051;-66
2022/06/07 06:31:36;;;;;;;9.52;3.83;;;12.50;99.90;;;;;;5066195;28;20043;-58
2022/06/07 06:34:02;;;;;;;7.50;3.38;;;12.50;99.90;;;;;;5065501;28;20048;-61
2022/06/07 06:36:30;;;;;;;9.15;4.15;;;12.40;99.90;;;;;;5062834;28;20092;-62
2022/06/07 06:38:57;;;;;;;7.28;3.03;;;12.40;99.90;;;;;;5065692;28;20087;-61
2022/06/07 06:41:29;;;;;;;11.82;3.72;;;12.30;99.90;;;;;;5068849;28;20131;-60
2022/06/07 06:43:58;;;;;;;4.75;3.03;;;12.30;99.90;;;;;;5065289;28;20048;-60
2022/06/07 06:46:31;;;;;;;6.35;2.53;;;12.30;99.90;;;;;;5050169;28;20052;-64
2022/06/07 06:48:57;;;;;;;3.85;2.67;;;12.30;99.90;;;;;;5068911;28;20099;-60
2022/06/07 06:51:26;;;;;;;8.27;2.35;;;12.30;99.90;;;;;;5068525;28;20109;-61
2022/06/07 06:53:57;;;;;;;4.18;2.15;;;12.20;99.90;;;;;;5073066;28;20044;-65
2022/06/07 06:56:23;;;;;;;4.32;2.13;;;12.20;99.90;;;;;;5066394;28;20064;-63
2022/06/07 06:58:50;;;;;;;6.25;1.98;;;12.20;99.90;;;;;;5068470;28;20040;-65
2022/06/07 07:01:19;;;;;;;5.85;1.83;;;12.20;99.90;;;;;;5065530;28;20051;-69
2022/06/07 07:03:45;;;;;;;4.63;1.27;;;12.30;99.90;;;;;;5064874;28;20040;-62
2022/06/07 07:06:13;;;;;;;3.88;1.13;;;12.30;99.90;;;;;;5068547;28;20155;-63
2022/06/07 07:08:40;;;;;;;1.33;1.00;;;12.20;99.90;;;;;;5086330;28;20043;-63
2022/06/07 07:11:17;;;;;;;1.73;1.20;;;12.10;99.90;;;;;;5061354;28;20401;-59
2022/06/07 07:13:44;;;;;;;1.98;1.13;;;12.20;99.90;;;;;;5067735;28;20039;-62
2022/06/07 07:16:13;;;;;;;1.83;1.00;;;12.20;99.90;;;;;;5067531;28;20044;-58
2022/06/07 07:18:39;;;;;;;2.15;1.33;;;12.20;99.90;;;;;;5067556;28;20054;-65
2022/06/07 07:21:07;;;;;;;4.30;1.45;;;12.30;99.90;;;;;;5086164;28;20048;-60
2022/06/07 07:23:33;;;;;;;9.52;1.77;;;12.30;99.90;;;;;;5067603;28;20040;-58
2022/06/07 07:26:09;;;;;;;4.57;1.70;;;12.40;99.90;;;;;;5049676;28;20424;-62
2022/06/07 07:28:37;;;;;;;3.30;1.75;;;12.50;99.90;;;;;;5068103;28;20127;-67
2022/06/07 07:31:06;;;;;;;4.13;1.70;;;12.60;99.90;;;;;;5048706;28;20063;-67
2022/06/07 07:33:34;;;;;;;6.53;1.92;;;12.70;99.90;;;;;;5046909;28;20040;-61
2022/06/07 07:36:01;;;;;;;2.70;1.50;;;12.80;99.90;;;;;;5064382;28;20381;-60
2022/06/07 07:38:27;;;;;;;3.08;1.27;;;12.90;99.90;;;;;;5048413;28;20044;-64
2022/06/07 07:40:53;;;;;;;3.75;1.75;;;13.00;99.90;;;;;;5064367;28;20052;-62
2022/06/07 07:43:19;;;;;;;4.30;1.55;;;13.10;99.90;;;;;;5064765;28;20064;-66
2022/06/07 07:45:50;;;;;;;2.97;1.42;;;13.10;99.90;;;;;;5064076;28;20048;-58
2022/06/07 07:48:16;;;;;;;5.85;1.30;;;13.10;99.90;;;;;;5063623;28;20554;-65
2022/06/07 07:50:42;;;;;;;6.57;1.52;;;13.20;99.90;;;;;;5059437;28;20245;-63
2022/06/07 07:53:08;;;;;;;3.90;1.27;;;13.20;99.90;;;;;;5065621;28;20405;-66
2022/06/07 07:55:35;;;;;;;4.97;1.30;;;13.30;99.90;;;;;;5044267;28;20053;-67
2022/06/07 07:58:00;;;;;;;3.45;1.05;;;13.20;99.90;;;;;;5046823;28;20451;-68
2022/06/07 08:00:28;;;;;;;6.03;1.33;;;13.20;99.90;;;;;;5065585;28;20087;-58
2022/06/07 08:02:59;;;;;;;5.60;1.15;;;13.10;99.90;;;;;;5079301;28;20113;-69
2022/06/07 08:05:25;;;;;;;5.25;1.38;;;13.30;99.90;;;;;;5043956;28;20048;-62
2022/06/07 08:07:51;;;;;;;6.20;0.98;;;13.50;99.90;;;;;;5063291;28;20043;-61
2022/06/07 08:10:18;;;;;;;7.55;1.30;;;13.60;99.90;;;;;;5064853;28;20052;-58
2022/06/07 08:12:44;;;;;;;9.70;1.40;;;13.60;99.90;;;;;;5063465;28;20093;-64
2022/06/07 08:15:11;;;;;;;6.45;2.47;;;13.70;99.90;;;;;;5032120;28;20447;-68
2022/06/07 08:17:36;;;;;;;7.07;1.38;;;13.60;99.90;;;;;;5048436;28;20048;-68
2022/06/07 08:20:03;;;;;;;11.48;1.70;;;13.50;99.90;;;;;;5082021;28;20047;-60
2022/06/07 08:22:29;;;;;;;6.78;1.25;;;13.40;99.90;;;;;;5063744;28;20398;-63
2022/06/07 08:24:54;;;;;;;5.10;1.75;;;13.30;99.90;;;;;;5064910;28;20060;-61
2022/06/07 08:27:20;;;;;;;4.70;1.20;;;13.20;99.90;;;;;;5082766;28;20287;-61
2022/06/07 08:29:46;;;;;;;3.58;1.25;;;13.10;99.90;;;;;;5048388;28;20498;-57
2022/06/07 08:32:11;;;;;;;9.20;1.67;;;13.10;99.90;;;;;;5066337;28;20100;-61
2022/06/07 08:37:37;;;;;;;7.10;1.40;;;13.10;99.90;;;;;;5062444;28;20091;-63
2022/06/07 08:40:15;;;;;;;4.13;0.98;;;13.10;99.90;;;;;;5067134;28;20040;-58
2022/06/07 08:42:56;;;;;;;6.70;1.30;;;13.20;99.90;;;;;;5085854;28;20094;-59
2022/06/07 08:45:28;;;;;;;7.22;0.93;;;13.30;99.90;;;;;;5065095;28;20044;-63
2022/06/07 08:47:57;;;;;;;6.60;1.17;;;13.40;99.90;;;;;;5071251;28;20479;-62
2022/06/07 08:50:32;;;;;;;7.27;1.00;;;13.50;99.90;;;;;;5084461;28;20827;-66
2022/06/07 08:53:09;;;;;;;6.20;1.30;;;13.60;99.90;;;;;;5065261;28;20071;-62
2022/06/07 08:55:57;;;;;;;11.60;2.40;;;13.80;99.90;;;;;;5085312;28;20056;-66
2022/06/07 08:58:27;;;;;;;5.95;1.10;;;14.00;99.90;;;;;;5068898;28;20052;-58
2022/06/07 09:01:18;;;;;;;4.95;1.30;;;14.20;99.90;;;;;;5053877;28;20044;-64
2022/06/07 09:04:12;;;;;;;7.57;1.27;;;14.30;99.90;;;;;;5075885;28;20465;-57
2022/06/07 09:06:45;;;;;;;6.68;1.45;;;14.30;99.90;;;;;;5051066;28;20036;-66
2022/06/07 09:09:12;;;;;;;6.45;1.30;;;14.40;99.90;;;;;;5087000;28;20126;-57
2022/06/07 09:12:10;;;;;;;7.40;1.45;;;14.50;99.90;;;;;;5053988;28;20050;-59
2022/06/07 09:14:48;;;;;;;7.18;1.27;;;14.50;99.90;;;;;;5070193;28;20105;-63
2022/06/07 09:17:30;;;;;;;8.38;1.70;;;14.60;99.90;;;;;;5087152;28;20754;-58
2022/06/07 09:19:56;;;;;;;6.47;1.85;;;14.50;99.90;;;;;;5056074;28;20055;-67
2022/06/07 09:22:37;;;;;;;12.27;3.45;;;14.50;99.90;;;;;;5088336;28;20085;-63
2022/06/07 09:25:16;;;;;;;5.05;1.40;;;14.50;99.90;;;;;;5068687;28;20036;-58
2022/06/07 09:27:45;;;;;;;6.63;1.40;;;14.40;99.90;;;;;;5086807;28;20059;-62
2022/06/07 09:30:29;;;;;;;5.38;1.30;;;14.40;99.90;;;;;;5070334;28;20048;-62
2022/06/07 09:32:56;;;;;;;6.95;1.65;;;14.30;99.90;;;;;;5064662;28;20105;-61
2022/06/07 09:35:34;;;;;;;3.92;1.30;;;14.30;99.90;;;;;;5082712;28;20398;-60
2022/06/07 09:38:24;;;;;;;6.45;1.27;;;14.20;99.90;;;;;;5062979;28;20075;-59
2022/06/07 09:40:52;;;;;;;9.52;2.10;;;14.20;99.90;;;;;;5080754;28;20487;-57
2022/06/07 09:43:23;;;;;;;5.55;1.60;;;14.20;99.90;;;;;;5066227;28;20082;-57
2022/06/07 09:46:07;;;;;;;6.07;1.05;;;14.20;99.90;;;;;;5066918;28;20044;-59
2022/06/07 09:48:38;;;;;;;4.40;1.05;;;14.20;99.90;;;;;;5083631;28;20083;-65
2022/06/07 09:51:15;;;;;;;8.15;1.33;;;14.10;99.90;;;;;;5065866;28;20044;-66
2022/06/07 09:53:45;;;;;;;4.95;1.33;;;14.00;99.90;;;;;;5083583;28;20091;-61
2022/06/07 09:56:24;;;;;;;9.05;1.63;;;14.00;99.90;;;;;;5064984;28;20138;-65
2022/06/07 09:59:02;;;;;;;3.38;1.52;;;13.90;99.90;;;;;;5063374;28;20655;-65
2022/06/07 10:01:39;;;;;;;5.25;1.40;;;13.70;99.90;;;;;;5058601;28;20055;-64
2022/06/07 10:04:36;;;;;;;5.80;1.63;;;13.60;99.90;;;;;;5082807;28;20083;-65
2022/06/07 10:07:11;;;;;;;9.20;1.42;;;13.30;99.90;;;;;;5060477;28;20091;-60
2022/06/07 10:09:55;;;;;;;10.00;1.42;;;13.20;99.90;;;;;;5084288;28;20500;-58
2022/06/07 10:12:34;;;;;;;4.20;0.90;;;13.10;99.90;;;;;;5067300;28;20161;-61
2022/06/07 10:15:20;;;;;;;8.15;1.40;;;13.10;99.90;;;;;;5048153;28;20051;-68
2022/06/07 10:18:13;;;;;;;6.55;1.10;;;13.00;99.90;;;;;;5081540;28;20036;-67
2022/06/07 10:20:53;;;;;;;6.05;1.35;;;13.10;99.90;;;;;;5083829;28;20386;-63
2022/06/07 10:23:42;;;;;;;4.47;1.17;;;13.20;99.90;;;;;;5049735;28;20047;-60
2022/06/07 10:26:36;;;;;;;4.47;1.33;;;13.30;99.90;;;;;;5062771;28;20048;-64
2022/06/07 10:29:27;;;;;;;7.00;1.13;;;13.50;99.90;;;;;;5077573;28;20499;-66
2022/06/07 10:32:08;;;;;;;6.80;1.55;;;13.70;99.90;;;;;;5027630;28;20056;-60
2022/06/07 10:34:52;;;;;;;5.13;0.85;;;13.80;99.90;;;;;;5084871;28;20823;-66
2022/06/07 10:37:28;;;;;;;9.98;1.63;;;14.00;99.90;;;;;;5069735;28;20038;-64
2022/06/07 10:40:12;;;;;;;6.57;1.83;;;14.10;99.90;;;;;;5081308;28;20040;-65
2022/06/07 10:43:03;;;;;;;8.50;1.83;;;14.10;99.90;;;;;;5057965;28;20044;-60
2022/06/07 10:45:37;;;;;;;5.13;1.25;;;14.20;99.90;;;;;;5065889;28;20064;-61
2022/06/07 10:48:18;;;;;;;8.55;1.75;;;14.30;99.90;;;;;;5082814;28;20063;-61
2022/06/07 10:50:53;;;;;;;6.22;1.58;;;14.40;99.90;;;;;;5070689;28;20498;-67
2022/06/07 10:53:27;;;;;;;9.55;2.17;;;14.40;99.90;;;;;;5061191;28;20079;-63
2022/06/07 10:56:16;;;;;;;7.75;1.60;;;14.40;99.90;;;;;;5082696;28;20147;-63
2022/06/07 10:58:53;;;;;;;5.27;1.57;;;14.40;99.90;;;;;;5063629;28;20445;-65
2022/06/07 11:01:41;;;;;;;6.97;1.52;;;14.40;99.90;;;;;;5082821;28;20040;-61
2022/06/07 11:04:07;;;;;;;7.80;1.55;;;14.40;99.90;;;;;;5035553;28;20044;-61
2022/06/07 11:09:44;;;;;;;11.65;2.22;;;14.40;99.90;;;;;;5073348;28;20048;-57
2022/06/07 11:12:19;;;;;;;4.63;1.40;;;14.30;99.90;;;;;;5064078;28;20040;-63
2022/06/07 11:15:13;;;;;;;5.97;1.15;;;14.30;99.90;;;;;;5065715;28;20040;-65
2022/06/07 11:17:56;;;;;;;8.27;1.60;;;14.30;99.90;;;;;;5047202;28;20083;-62
2022/06/07 11:20:29;;;;;;;11.38;1.73;;;14.20;99.90;;;;;;5084222;28;20615;-57
2022/06/07 11:23:12;;;;;;;6.18;1.92;;;14.10;99.90;;;;;;5081539;28;20054;-66
2022/06/07 11:25:43;;;;;;;8.75;1.90;;;14.10;99.90;;;;;;5084079;28;20058;-67
2022/06/07 11:28:41;;;;;;;7.80;1.35;;;14.00;99.90;;;;;;5064855;28;20044;-60
2022/06/07 11:31:34;;;;;;;6.50;1.55;;;14.10;99.90;;;;;;5066338;28;20040;-59
2022/06/07 11:34:29;;;;;;;6.78;1.55;;;14.30;99.90;;;;;;5081535;28;20044;-66
2022/06/07 11:37:07;;;;;;;9.20;1.83;;;14.40;99.90;;;;;;5059650;28;20047;-69
2022/06/07 11:39:36;;;;;;;3.75;1.15;;;14.50;99.90;;;;;;5083078;28;20059;-55
2022/06/07 11:42:15;;;;;;;12.98;1.90;;;14.50;99.90;;;;;;5072895;28;20558;-63
2022/06/07 11:44:41;;;;;;;7.43;1.30;;;14.50;99.90;;;;;;5062544;28;20582;-60
2022/06/07 11:47:07;;;;;;;10.32;2.40;;;14.50;99.90;;;;;;5082066;28;20100;-59
2022/06/07 11:49:54;;;;;;;7.28;1.80;;;14.60;99.90;;;;;;5062855;28;20479;-63
2022/06/07 11:52:24;;;;;;;4.88;1.15;;;14.60;99.90;;;;;;5059588;28;20130;-60
2022/06/07 11:54:55;;;;;;;6.03;1.30;;;14.70;99.90;;;;;;5066717;28;20071;-59
2022/06/07 11:57:24;;;;;;;9.90;1.40;;;14.90;99.90;;;;;;5077860;28;20044;-58
2022/06/07 11:59:52;;;;;;;8.85;1.48;;;15.10;99.90;;;;;;5064549;28;20482;-54
2022/06/07 12:02:24;;;;;;;6.25;1.52;;;15.20;99.90;;;;;;5084731;28;20441;-57
2022/06/07 12:04:59;;;;;;;9.20;1.30;;;15.30;99.90;;;;;;5064215;28;20055;-63
2022/06/07 12:07:47;;;;;;;8.48;1.80;;;15.40;99.90;;;;;;5062588;28;20070;-61
2022/06/07 12:10:16;;;;;;;7.10;1.58;;;15.50;99.90;;;;;;5065698;28;20048;-64
2022/06/07 12:12:47;;;;;;;8.05;1.80;;;15.50;99.90;;;;;;5060395;28;20055;-60
2022/06/07 12:15:20;;;;;;;6.65;1.30;;;15.50;99.90;;;;;;5048658;28;20109;-63
2022/06/07 12:18:06;;;;;;;3.67;1.17;;;15.50;99.90;;;;;;5082358;28;20040;-57
2022/06/07 12:20:39;;;;;;;10.20;3.15;;;15.50;99.90;;;;;;5058798;28;20090;-62
2022/06/07 12:23:26;;;;;;;5.05;1.50;;;15.50;99.90;;;;;;5063808;28;20044;-53
2022/06/07 12:25:57;;;;;;;4.68;1.20;;;15.50;99.90;;;;;;5063757;28;20071;-64
2022/06/07 12:28:27;;;;;;;4.57;1.30;;;15.50;99.90;;;;;;5054895;28;20052;-66
2022/06/07 12:30:54;;;;;;;2.75;1.00;;;15.50;99.90;;;;;;5085966;28;20050;-57
2022/06/07 12:33:28;;;;;;;6.85;0.90;;;15.50;97.60;;;;;;5066097;28;20111;-61
2022/06/07 12:36:19;;;;;;;7.45;1.17;;;15.50;99.30;;;;;;5067628;28;20056;-61
2022/06/07 12:38:46;;;;;;;5.22;0.95;;;15.50;99.10;;;;;;5068513;28;20513;-63
2022/06/07 12:41:22;;;;;;;8.63;1.23;;;15.60;99.90;;;;;;5070730;28;20055;-57
2022/06/07 12:43:52;;;;;;;4.53;1.20;;;15.70;99.60;;;;;;5078158;28;20044;-65
2022/06/07 12:46:19;;;;;;;;;;;15.70;96.60;;;;;;5087946;28;20044;-55
2022/06/07 12:48:46;;;;;;;7.05;1.23;;;15.70;95.20;;;;;;5083955;28;20419;-57
2022/06/07 12:51:28;;;;;;;2.55;0.90;;;15.50;94.90;;;;;;5088357;28;20063;-60
2022/06/07 12:53:59;;;;;;;3.83;0.90;;;15.40;93.60;;;;;;5088054;28;20508;-56
2022/06/07 12:56:28;;;;;;;3.72;0.95;;;15.20;95.60;;;;;;5069299;28;20127;-57
2022/06/07 12:58:57;;;;;;;6.10;0.93;;;15.10;97.40;;;;;;5084070;28;20056;-55
2022/06/07 13:01:36;;;;;;;3.47;0.95;;;15.20;98.70;;;;;;5070515;28;20467;-59
2022/06/07 13:04:20;;;;;;;2.65;1.15;;;15.20;98.00;;;;;;5069629;28;20052;-57
2022/06/07 13:07:24;;;;;;;6.00;1.17;;;15.20;98.50;;;;;;5053840;28;20048;-60
2022/06/07 13:09:58;;;;;;;5.72;1.75;;;15.20;99.30;;;;;;5063488;28;20105;-61
2022/06/07 13:12:35;;;;;;;7.68;1.40;;;15.30;99.90;;;;;;5070232;28;20088;-58
2022/06/07 13:15:04;;;;;;;5.50;1.35;;;15.50;99.90;;;;;;5088770;28;20044;-65
2022/06/07 13:17:36;;;;;;;4.93;1.00;;;15.90;98.20;;;;;;5068296;28;20052;-57